sensor_id;sensor_type;location;lat;lon;timestamp;pressure;altitude;pressure_sealevel;temperature;humidity
33153;BME280;19509;43.862;26.176;2022-07-29T00:00:35;100823.53;;;20.96;74.12
33153;BME280;19509;43.862;26.176;2022-07-29T00:03:01;100816.13;;;20.92;74.20
33153;BME280;19509;43.862;26.176;2022-07-29T00:05:27;100822.16;;;20.94;74.19
33153;BME280;19509;43.862;26.176;2022-07-29T00:07:52;100824.34;;;20.87;73.98
33153;BME280;19509;43.862;26.176;2022-07-29T00:10:18;100828.72;;;20.83;74.08
33153;BME280;19509;43.862;26.176;2022-07-29T00:12:44;100834.16;;;20.77;74.37
33153;BME280;19509;43.862;26.176;2022-07-29T00:15:09;100812.84;;;20.85;73.58
33153;BME280;19509;43.862;26.176;2022-07-29T00:17:35;100822.72;;;20.96;73.01
33153;BME280;19509;43.862;26.176;2022-07-29T00:20:01;100819.97;;;20.75;73.33
33153;BME280;19509;43.862;26.176;2022-07-29T00:22:26;100828.97;;;20.55;74.00
33153;BME280;19509;43.862;26.176;2022-07-29T00:24:52;100827.25;;;20.39;74.73
33153;BME280;19509;43.862;26.176;2022-07-29T00:27:17;100837.38;;;20.44;74.42
33153;BME280;19509;43.862;26.176;2022-07-29T00:29:43;100829.16;;;20.39;74.58
33153;BME280;19509;43.862;26.176;2022-07-29T00:32:08;100838.16;;;20.29;74.63
33153;BME280;19509;43.862;26.176;2022-07-29T00:34:34;100836.41;;;20.02;75.47
33153;BME280;19509;43.862;26.176;2022-07-29T00:37:18;100838.22;;;19.76;76.23
33153;BME280;19509;43.862;26.176;2022-07-29T00:39:44;100843.13;;;19.79;76.54
33153;BME280;19509;43.862;26.176;2022-07-29T00:42:09;100834.16;;;19.84;76.33
33153;BME280;19509;43.862;26.176;2022-07-29T00:44:39;100836.41;;;19.97;76.09
33153;BME280;19509;43.862;26.176;2022-07-29T00:47:06;100837.19;;;19.93;75.99
33153;BME280;19509;43.862;26.176;2022-07-29T00:49:33;100836.94;;;19.94;75.88
33153;BME280;19509;43.862;26.176;2022-07-29T00:52:01;100839.06;;;19.82;76.04
33153;BME280;19509;43.862;26.176;2022-07-29T00:54:27;100835.69;;;19.65;76.63
33153;BME280;19509;43.862;26.176;2022-07-29T00:56:55;100831.91;;;19.71;76.31
33153;BME280;19509;43.862;26.176;2022-07-29T00:59:21;100839.59;;;19.74;76.03
33153;BME280;19509;43.862;26.176;2022-07-29T01:01:47;100835.41;;;19.66;76.16
33153;BME280;19509;43.862;26.176;2022-07-29T01:04:12;100836.72;;;19.53;76.53
33153;BME280;19509;43.862;26.176;2022-07-29T01:06:38;100836.66;;;19.48;76.36
33153;BME280;19509;43.862;26.176;2022-07-29T01:09:03;100830.44;;;19.58;76.28
33153;BME280;19509;43.862;26.176;2022-07-29T01:11:30;100827.66;;;19.53;75.88
33153;BME280;19509;43.862;26.176;2022-07-29T01:13:56;100827.00;;;19.73;75.25
33153;BME280;19509;43.862;26.176;2022-07-29T01:16:28;100826.19;;;19.72;75.00
33153;BME280;19509;43.862;26.176;2022-07-29T01:19:00;100820.31;;;19.53;74.60
33153;BME280;19509;43.862;26.176;2022-07-29T01:21:51;100818.94;;;19.56;73.88
33153;BME280;19509;43.862;26.176;2022-07-29T01:29:58;100823.31;;;19.52;74.08
33153;BME280;19509;43.862;26.176;2022-07-29T01:32:28;100816.53;;;19.17;75.08
33153;BME280;19509;43.862;26.176;2022-07-29T01:37:48;100818.81;;;19.30;75.02
33153;BME280;19509;43.862;26.176;2022-07-29T01:40:29;100812.25;;;19.31;75.12
33153;BME280;19509;43.862;26.176;2022-07-29T01:42:58;100809.81;;;19.35;74.90
33153;BME280;19509;43.862;26.176;2022-07-29T01:45:37;100813.91;;;19.32;75.53
33153;BME280;19509;43.862;26.176;2022-07-29T01:48:13;100812.91;;;19.44;75.12
33153;BME280;19509;43.862;26.176;2022-07-29T01:50:47;100813.97;;;19.43;74.72
33153;BME280;19509;43.862;26.176;2022-07-29T01:53:18;100809.28;;;19.33;74.67
33153;BME280;19509;43.862;26.176;2022-07-29T01:55:48;100822.06;;;19.27;73.63
33153;BME280;19509;43.862;26.176;2022-07-29T01:58:14;100817.47;;;19.33;73.75
33153;BME280;19509;43.862;26.176;2022-07-29T02:00:44;100824.22;;;19.25;73.75
33153;BME280;19509;43.862;26.176;2022-07-29T02:03:11;100813.81;;;19.17;73.71
33153;BME280;19509;43.862;26.176;2022-07-29T02:05:39;100823.94;;;19.22;73.53
33153;BME280;19509;43.862;26.176;2022-07-29T02:08:07;100822.22;;;19.10;73.40
33153;BME280;19509;43.862;26.176;2022-07-29T02:10:34;100816.03;;;18.88;73.00
33153;BME280;19509;43.862;26.176;2022-07-29T02:13:02;100833.44;;;18.82;74.14
33153;BME280;19509;43.862;26.176;2022-07-29T02:15:29;100823.59;;;18.81;74.17
33153;BME280;19509;43.862;26.176;2022-07-29T02:17:58;100825.38;;;18.70;74.97
33153;BME280;19509;43.862;26.176;2022-07-29T02:20:25;100824.28;;;18.71;74.78
33153;BME280;19509;43.862;26.176;2022-07-29T02:22:52;100808.69;;;18.61;75.05
33153;BME280;19509;43.862;26.176;2022-07-29T02:25:20;100819.50;;;18.51;75.67
33153;BME280;19509;43.862;26.176;2022-07-29T02:27:49;100814.03;;;18.51;75.29
33153;BME280;19509;43.862;26.176;2022-07-29T02:30:16;100821.03;;;18.42;75.53
33153;BME280;19509;43.862;26.176;2022-07-29T02:32:43;100819.94;;;18.43;75.04
33153;BME280;19509;43.862;26.176;2022-07-29T02:35:12;100816.13;;;18.44;75.00
33153;BME280;19509;43.862;26.176;2022-07-29T02:37:39;100813.88;;;18.63;74.68
33153;BME280;19509;43.862;26.176;2022-07-29T02:40:05;100817.00;;;18.72;74.37
33153;BME280;19509;43.862;26.176;2022-07-29T02:42:35;100817.47;;;18.68;74.38
33153;BME280;19509;43.862;26.176;2022-07-29T02:45:01;100816.44;;;18.48;75.25
33153;BME280;19509;43.862;26.176;2022-07-29T02:47:30;100811.72;;;18.38;75.03
33153;BME280;19509;43.862;26.176;2022-07-29T02:50:11;100816.03;;;18.34;75.38
33153;BME280;19509;43.862;26.176;2022-07-29T02:52:45;100815.06;;;18.18;75.96
33153;BME280;19509;43.862;26.176;2022-07-29T02:55:37;100822.91;;;18.14;76.31
33153;BME280;19509;43.862;26.176;2022-07-29T02:58:14;100813.97;;;18.19;76.86
33153;BME280;19509;43.862;26.176;2022-07-29T03:00:41;100820.66;;;18.33;75.87
33153;BME280;19509;43.862;26.176;2022-07-29T03:03:12;100817.88;;;18.28;75.96
33153;BME280;19509;43.862;26.176;2022-07-29T03:05:40;100827.19;;;18.59;75.25
33153;BME280;19509;43.862;26.176;2022-07-29T03:08:07;100826.47;;;18.69;74.87
33153;BME280;19509;43.862;26.176;2022-07-29T03:10:34;100831.63;;;18.65;74.83
33153;BME280;19509;43.862;26.176;2022-07-29T03:13:00;100834.25;;;18.28;75.55
33153;BME280;19509;43.862;26.176;2022-07-29T03:15:27;100831.94;;;18.42;74.79
33153;BME280;19509;43.862;26.176;2022-07-29T03:17:53;100830.63;;;18.50;74.38
33153;BME280;19509;43.862;26.176;2022-07-29T03:20:19;100833.53;;;18.65;74.22
33153;BME280;19509;43.862;26.176;2022-07-29T03:22:45;100831.63;;;18.65;74.09
33153;BME280;19509;43.862;26.176;2022-07-29T03:25:15;100834.06;;;18.67;74.03
33153;BME280;19509;43.862;26.176;2022-07-29T03:27:42;100842.25;;;18.67;74.45
33153;BME280;19509;43.862;26.176;2022-07-29T03:30:08;100849.16;;;18.75;74.06
33153;BME280;19509;43.862;26.176;2022-07-29T03:32:35;100851.13;;;18.79;74.02
33153;BME280;19509;43.862;26.176;2022-07-29T03:35:01;100855.25;;;18.82;74.27
33153;BME280;19509;43.862;26.176;2022-07-29T03:37:27;100853.66;;;18.86;74.19
33153;BME280;19509;43.862;26.176;2022-07-29T03:51:40;100862.50;;;19.35;72.76
33153;BME280;19509;43.862;26.176;2022-07-29T03:54:06;100860.00;;;19.29;72.80
33153;BME280;19509;43.862;26.176;2022-07-29T03:56:34;100862.25;;;19.37;72.44
33153;BME280;19509;43.862;26.176;2022-07-29T03:59:02;100863.16;;;19.53;71.56
33153;BME280;19509;43.862;26.176;2022-07-29T04:01:28;100873.03;;;19.59;71.71
33153;BME280;19509;43.862;26.176;2022-07-29T04:03:55;100866.59;;;19.70;70.41
33153;BME280;19509;43.862;26.176;2022-07-29T04:06:21;100864.69;;;19.76;70.25
33153;BME280;19509;43.862;26.176;2022-07-29T04:08:46;100859.84;;;19.88;70.36
33153;BME280;19509;43.862;26.176;2022-07-29T04:11:12;100867.81;;;20.00;69.18
33153;BME280;19509;43.862;26.176;2022-07-29T04:13:38;100864.59;;;20.08;69.32
33153;BME280;19509;43.862;26.176;2022-07-29T04:16:03;100870.09;;;20.23;68.97
33153;BME280;19509;43.862;26.176;2022-07-29T04:18:29;100869.00;;;20.24;70.19
33153;BME280;19509;43.862;26.176;2022-07-29T04:20:54;100876.75;;;20.48;69.60
33153;BME280;19509;43.862;26.176;2022-07-29T04:23:20;100868.06;;;20.56;69.25
33153;BME280;19509;43.862;26.176;2022-07-29T04:25:45;100868.88;;;20.62;68.83
33153;BME280;19509;43.862;26.176;2022-07-29T04:28:11;100871.34;;;20.78;67.84
33153;BME280;19509;43.862;26.176;2022-07-29T04:30:37;100874.66;;;20.91;67.07
33153;BME280;19509;43.862;26.176;2022-07-29T04:33:04;100870.84;;;21.02;66.82
33153;BME280;19509;43.862;26.176;2022-07-29T04:35:32;100869.75;;;21.03;66.81
33153;BME280;19509;43.862;26.176;2022-07-29T04:37:59;100873.56;;;21.22;65.92
33153;BME280;19509;43.862;26.176;2022-07-29T04:40:24;100879.34;;;21.36;66.36
33153;BME280;19509;43.862;26.176;2022-07-29T04:42:50;100874.13;;;21.50;65.84
33153;BME280;19509;43.862;26.176;2022-07-29T04:45:15;100877.41;;;21.67;64.83
33153;BME280;19509;43.862;26.176;2022-07-29T04:47:41;100885.84;;;21.81;64.53
33153;BME280;19509;43.862;26.176;2022-07-29T04:50:07;100878.38;;;21.97;63.44
33153;BME280;19509;43.862;26.176;2022-07-29T04:52:33;100879.47;;;22.16;63.15
33153;BME280;19509;43.862;26.176;2022-07-29T04:55:00;100886.00;;;22.26;63.74
33153;BME280;19509;43.862;26.176;2022-07-29T04:57:26;100880.72;;;22.34;64.29
33153;BME280;19509;43.862;26.176;2022-07-29T04:59:51;100884.84;;;22.42;64.71
33153;BME280;19509;43.862;26.176;2022-07-29T05:02:17;100890.78;;;22.59;64.06
33153;BME280;19509;43.862;26.176;2022-07-29T05:04:42;100888.72;;;22.75;63.53
33153;BME280;19509;43.862;26.176;2022-07-29T05:07:08;100892.75;;;22.88;63.23
33153;BME280;19509;43.862;26.176;2022-07-29T05:09:33;100894.91;;;23.01;62.94
33153;BME280;19509;43.862;26.176;2022-07-29T05:11:59;100905.16;;;23.20;62.61
33153;BME280;19509;43.862;26.176;2022-07-29T05:14:24;100895.19;;;23.34;62.10
33153;BME280;19509;43.862;26.176;2022-07-29T05:16:50;100905.00;;;23.40;61.84
33153;BME280;19509;43.862;26.176;2022-07-29T05:19:17;100888.41;;;23.50;61.55
33153;BME280;19509;43.862;26.176;2022-07-29T05:21:44;100895.25;;;23.58;60.67
33153;BME280;19509;43.862;26.176;2022-07-29T05:24:10;100902.38;;;23.59;60.96
33153;BME280;19509;43.862;26.176;2022-07-29T05:26:36;100903.78;;;23.86;58.61
33153;BME280;19509;43.862;26.176;2022-07-29T05:29:02;100901.13;;;23.75;58.50
33153;BME280;19509;43.862;26.176;2022-07-29T05:31:27;100898.84;;;23.82;59.06
33153;BME280;19509;43.862;26.176;2022-07-29T05:33:53;100897.41;;;23.61;59.12
33153;BME280;19509;43.862;26.176;2022-07-29T05:36:18;100896.66;;;23.84;58.44
33153;BME280;19509;43.862;26.176;2022-07-29T05:38:44;100896.69;;;23.79;58.41
33153;BME280;19509;43.862;26.176;2022-07-29T05:41:09;100902.03;;;23.95;58.25
33153;BME280;19509;43.862;26.176;2022-07-29T05:43:35;100908.72;;;24.07;57.52
33153;BME280;19509;43.862;26.176;2022-07-29T05:46:00;100903.66;;;24.20;57.33
33153;BME280;19509;43.862;26.176;2022-07-29T05:48:26;100908.59;;;24.18;57.50
33153;BME280;19509;43.862;26.176;2022-07-29T05:50:51;100902.28;;;24.41;57.00
33153;BME280;19509;43.862;26.176;2022-07-29T05:53:17;100895.69;;;24.61;55.78
33153;BME280;19509;43.862;26.176;2022-07-29T05:55:42;100891.25;;;24.84;56.07
33153;BME280;19509;43.862;26.176;2022-07-29T05:58:08;100894.44;;;24.91;55.20
33153;BME280;19509;43.862;26.176;2022-07-29T06:00:34;100900.84;;;24.87;55.75
33153;BME280;19509;43.862;26.176;2022-07-29T06:02:59;100905.91;;;25.17;55.36
33153;BME280;19509;43.862;26.176;2022-07-29T06:05:25;100894.38;;;25.29;54.05
33153;BME280;19509;43.862;26.176;2022-07-29T06:07:50;100896.06;;;25.44;51.07
33153;BME280;19509;43.862;26.176;2022-07-29T06:10:16;100898.16;;;25.66;51.46
33153;BME280;19509;43.862;26.176;2022-07-29T06:12:42;100894.31;;;25.94;50.24
33153;BME280;19509;43.862;26.176;2022-07-29T06:15:07;100898.53;;;26.06;49.43
33153;BME280;19509;43.862;26.176;2022-07-29T06:17:33;100893.00;;;26.19;50.93
33153;BME280;19509;43.862;26.176;2022-07-29T06:19:59;100889.59;;;26.36;49.42
33153;BME280;19509;43.862;26.176;2022-07-29T06:22:24;100893.84;;;26.42;46.61
33153;BME280;19509;43.862;26.176;2022-07-29T06:24:50;100883.03;;;26.32;45.30
33153;BME280;19509;43.862;26.176;2022-07-29T06:27:15;100888.47;;;26.37;48.02
33153;BME280;19509;43.862;26.176;2022-07-29T06:29:41;100886.41;;;26.43;46.63
33153;BME280;19509;43.862;26.176;2022-07-29T06:32:07;100881.16;;;26.69;45.66
33153;BME280;19509;43.862;26.176;2022-07-29T06:34:34;100873.59;;;26.97;46.39
33153;BME280;19509;43.862;26.176;2022-07-29T06:37:00;100877.69;;;27.22;44.27
33153;BME280;19509;43.862;26.176;2022-07-29T06:39:27;100878.97;;;27.47;43.93
33153;BME280;19509;43.862;26.176;2022-07-29T06:41:53;100870.63;;;27.70;43.16
33153;BME280;19509;43.862;26.176;2022-07-29T06:44:19;100880.13;;;27.77;42.89
33153;BME280;19509;43.862;26.176;2022-07-29T06:46:44;100884.44;;;27.92;42.74
33153;BME280;19509;43.862;26.176;2022-07-29T06:49:12;100883.13;;;27.98;43.84
33153;BME280;19509;43.862;26.176;2022-07-29T06:51:39;100880.34;;;27.98;42.45
33153;BME280;19509;43.862;26.176;2022-07-29T06:54:04;100882.66;;;28.05;40.82
33153;BME280;19509;43.862;26.176;2022-07-29T06:56:31;100893.38;;;27.98;41.67
33153;BME280;19509;43.862;26.176;2022-07-29T06:58:57;100885.81;;;27.81;42.33
33153;BME280;19509;43.862;26.176;2022-07-29T07:01:23;100887.84;;;27.98;41.94
33153;BME280;19509;43.862;26.176;2022-07-29T07:03:48;100888.47;;;27.86;41.27
33153;BME280;19509;43.862;26.176;2022-07-29T07:06:14;100889.44;;;27.90;41.46
33153;BME280;19509;43.862;26.176;2022-07-29T07:08:39;100887.75;;;28.20;41.13
33153;BME280;19509;43.862;26.176;2022-07-29T07:11:05;100890.09;;;28.44;40.78
33153;BME280;19509;43.862;26.176;2022-07-29T07:13:32;100883.88;;;28.30;40.61
33153;BME280;19509;43.862;26.176;2022-07-29T07:16:00;100884.94;;;28.60;40.43
33153;BME280;19509;43.862;26.176;2022-07-29T07:18:26;100880.50;;;28.94;39.97
33153;BME280;19509;43.862;26.176;2022-07-29T07:20:51;100885.53;;;29.27;39.39
33153;BME280;19509;43.862;26.176;2022-07-29T07:23:17;100880.69;;;28.97;37.54
33153;BME280;19509;43.862;26.176;2022-07-29T07:25:42;100874.16;;;28.93;38.10
33153;BME280;19509;43.862;26.176;2022-07-29T07:28:08;100872.84;;;28.47;39.03
33153;BME280;19509;43.862;26.176;2022-07-29T07:30:34;100875.63;;;28.99;38.12
33153;BME280;19509;43.862;26.176;2022-07-29T07:33:00;100876.47;;;29.09;37.79
33153;BME280;19509;43.862;26.176;2022-07-29T07:35:25;100872.53;;;29.10;37.61
33153;BME280;19509;43.862;26.176;2022-07-29T07:37:53;100874.00;;;28.98;37.83
33153;BME280;19509;43.862;26.176;2022-07-29T07:40:19;100874.19;;;29.02;37.46
33153;BME280;19509;43.862;26.176;2022-07-29T07:42:46;100874.41;;;29.44;37.11
33153;BME280;19509;43.862;26.176;2022-07-29T07:45:11;100866.53;;;29.55;37.31
33153;BME280;19509;43.862;26.176;2022-07-29T07:47:38;100869.44;;;29.76;36.27
33153;BME280;19509;43.862;26.176;2022-07-29T07:50:05;100872.13;;;29.37;36.31
33153;BME280;19509;43.862;26.176;2022-07-29T07:52:32;100865.13;;;29.49;37.03
33153;BME280;19509;43.862;26.176;2022-07-29T07:54:58;100859.22;;;29.50;37.55
33153;BME280;19509;43.862;26.176;2022-07-29T07:57:24;100867.69;;;29.54;36.52
33153;BME280;19509;43.862;26.176;2022-07-29T07:59:49;100867.94;;;29.78;37.55
33153;BME280;19509;43.862;26.176;2022-07-29T08:02:15;100853.28;;;30.07;36.49
33153;BME280;19509;43.862;26.176;2022-07-29T08:04:40;100853.94;;;30.04;36.45
33153;BME280;19509;43.862;26.176;2022-07-29T08:07:07;100856.47;;;30.27;35.67
33153;BME280;19509;43.862;26.176;2022-07-29T08:09:33;100851.13;;;30.13;35.30
33153;BME280;19509;43.862;26.176;2022-07-29T08:11:59;100851.44;;;30.41;36.56
33153;BME280;19509;43.862;26.176;2022-07-29T08:14:27;100850.28;;;30.84;35.55
33153;BME280;19509;43.862;26.176;2022-07-29T08:16:53;100844.72;;;31.05;34.62
33153;BME280;19509;43.862;26.176;2022-07-29T08:19:19;100843.13;;;31.28;33.61
33153;BME280;19509;43.862;26.176;2022-07-29T08:21:44;100840.69;;;31.27;34.49
33153;BME280;19509;43.862;26.176;2022-07-29T08:24:10;100841.47;;;31.36;33.45
33153;BME280;19509;43.862;26.176;2022-07-29T08:26:54;100843.38;;;31.23;33.80
33153;BME280;19509;43.862;26.176;2022-07-29T08:29:19;100841.50;;;31.15;34.17
33153;BME280;19509;43.862;26.176;2022-07-29T08:31:45;100834.78;;;31.16;33.02
33153;BME280;19509;43.862;26.176;2022-07-29T08:34:11;100843.59;;;31.30;33.17
33153;BME280;19509;43.862;26.176;2022-07-29T08:36:37;100843.34;;;31.56;32.20
33153;BME280;19509;43.862;26.176;2022-07-29T08:39:03;100846.09;;;31.69;32.78
33153;BME280;19509;43.862;26.176;2022-07-29T08:41:29;100836.63;;;31.70;32.00
33153;BME280;19509;43.862;26.176;2022-07-29T08:43:54;100846.16;;;31.93;32.01
33153;BME280;19509;43.862;26.176;2022-07-29T08:46:21;100839.53;;;31.98;31.17
33153;BME280;19509;43.862;26.176;2022-07-29T08:48:47;100835.25;;;31.88;31.61
33153;BME280;19509;43.862;26.176;2022-07-29T08:51:20;100844.78;;;31.87;30.35
33153;BME280;19509;43.862;26.176;2022-07-29T08:53:48;100831.84;;;31.83;30.50
33153;BME280;19509;43.862;26.176;2022-07-29T08:56:17;100831.41;;;32.05;31.14
33153;BME280;19509;43.862;26.176;2022-07-29T08:58:45;100830.56;;;32.29;30.15
33153;BME280;19509;43.862;26.176;2022-07-29T09:01:13;100825.38;;;32.03;29.01
33153;BME280;19509;43.862;26.176;2022-07-29T09:03:43;100826.06;;;32.12;30.30
33153;BME280;19509;43.862;26.176;2022-07-29T09:06:13;100828.03;;;32.24;29.07
33153;BME280;19509;43.862;26.176;2022-07-29T09:08:39;100812.19;;;31.88;31.17
33153;BME280;19509;43.862;26.176;2022-07-29T09:11:05;100823.91;;;32.34;29.72
33153;BME280;19509;43.862;26.176;2022-07-29T09:13:32;100815.63;;;32.09;29.39
33153;BME280;19509;43.862;26.176;2022-07-29T09:15:58;100816.53;;;32.25;30.33
33153;BME280;19509;43.862;26.176;2022-07-29T09:18:40;100808.88;;;32.63;30.25
33153;BME280;19509;43.862;26.176;2022-07-29T09:21:07;100803.88;;;32.96;28.91
33153;BME280;19509;43.862;26.176;2022-07-29T09:24:08;100797.16;;;33.13;29.34
33153;BME280;19509;43.862;26.176;2022-07-29T09:26:36;100801.28;;;33.04;28.41
33153;BME280;19509;43.862;26.176;2022-07-29T09:29:28;100794.72;;;32.84;29.97
33153;BME280;19509;43.862;26.176;2022-07-29T09:31:55;100798.75;;;33.14;29.43
33153;BME280;19509;43.862;26.176;2022-07-29T09:34:26;100797.16;;;33.13;28.31
33153;BME280;19509;43.862;26.176;2022-07-29T09:36:53;100792.13;;;33.19;28.13
33153;BME280;19509;43.862;26.176;2022-07-29T09:39:37;100794.91;;;33.03;28.46
33153;BME280;19509;43.862;26.176;2022-07-29T09:42:06;100796.25;;;33.25;28.85
33153;BME280;19509;43.862;26.176;2022-07-29T09:44:46;100797.44;;;33.56;27.97
33153;BME280;19509;43.862;26.176;2022-07-29T09:47:13;100796.72;;;33.59;27.25
33153;BME280;19509;43.862;26.176;2022-07-29T09:52:17;100790.97;;;33.67;28.06
33153;BME280;19509;43.862;26.176;2022-07-29T09:54:42;100787.31;;;33.83;27.74
33153;BME280;19509;43.862;26.176;2022-07-29T09:57:09;100784.78;;;33.94;27.14
33153;BME280;19509;43.862;26.176;2022-07-29T09:59:59;100775.81;;;33.68;27.30
33153;BME280;19509;43.862;26.176;2022-07-29T10:02:32;100778.28;;;33.54;27.91
33153;BME280;19509;43.862;26.176;2022-07-29T10:04:59;100773.50;;;33.71;27.66
33153;BME280;19509;43.862;26.176;2022-07-29T10:07:26;100768.78;;;33.75;27.21
33153;BME280;19509;43.862;26.176;2022-07-29T10:09:56;100775.09;;;33.72;27.70
33153;BME280;19509;43.862;26.176;2022-07-29T10:12:23;100776.31;;;34.06;26.60
33153;BME280;19509;43.862;26.176;2022-07-29T10:14:49;100776.75;;;34.08;27.01
33153;BME280;19509;43.862;26.176;2022-07-29T10:17:16;100765.28;;;34.13;27.02
33153;BME280;19509;43.862;26.176;2022-07-29T10:19:41;100769.28;;;34.31;26.77
33153;BME280;19509;43.862;26.176;2022-07-29T10:22:09;100765.66;;;34.50;26.25
33153;BME280;19509;43.862;26.176;2022-07-29T10:24:37;100766.75;;;34.26;26.83
33153;BME280;19509;43.862;26.176;2022-07-29T10:27:04;100762.59;;;34.55;27.59
33153;BME280;19509;43.862;26.176;2022-07-29T10:29:30;100757.78;;;34.36;26.24
33153;BME280;19509;43.862;26.176;2022-07-29T10:43:29;100747.94;;;33.37;27.01
33153;BME280;19509;43.862;26.176;2022-07-29T10:45:59;100748.88;;;33.76;26.89
33153;BME280;19509;43.862;26.176;2022-07-29T10:48:25;100740.47;;;34.08;26.44
33153;BME280;19509;43.862;26.176;2022-07-29T10:50:59;100740.31;;;34.59;27.13
33153;BME280;19509;43.862;26.176;2022-07-29T10:56:32;100739.50;;;33.33;27.43
33153;BME280;19509;43.862;26.176;2022-07-29T11:01:48;100720.63;;;34.52;26.64
33153;BME280;19509;43.862;26.176;2022-07-29T11:07:10;100720.09;;;34.89;24.94
33153;BME280;19509;43.862;26.176;2022-07-29T11:09:37;100724.19;;;34.72;24.71
33153;BME280;19509;43.862;26.176;2022-07-29T11:12:09;100714.06;;;34.87;23.97
33153;BME280;19509;43.862;26.176;2022-07-29T11:14:59;100713.41;;;35.16;25.09
33153;BME280;19509;43.862;26.176;2022-07-29T11:17:28;100702.28;;;35.46;24.53
33153;BME280;19509;43.862;26.176;2022-07-29T11:22:57;100705.13;;;36.07;23.39
33153;BME280;19509;43.862;26.176;2022-07-29T11:25:22;100698.09;;;36.20;23.13
33153;BME280;19509;43.862;26.176;2022-07-29T11:27:48;100703.97;;;36.08;23.26
33153;BME280;19509;43.862;26.176;2022-07-29T11:30:14;100702.31;;;35.23;25.74
33153;BME280;19509;43.862;26.176;2022-07-29T11:32:44;100685.41;;;34.51;27.90
33153;BME280;19509;43.862;26.176;2022-07-29T11:35:21;100684.03;;;34.60;27.96
33153;BME280;19509;43.862;26.176;2022-07-29T11:43:51;100673.56;;;34.77;25.94
33153;BME280;19509;43.862;26.176;2022-07-29T11:46:43;100668.81;;;35.27;25.18
33153;BME280;19509;43.862;26.176;2022-07-29T11:49:09;100671.50;;;35.46;23.82
33153;BME280;19509;43.862;26.176;2022-07-29T11:51:36;100669.38;;;35.66;24.19
33153;BME280;19509;43.862;26.176;2022-07-29T11:54:04;100672.03;;;35.86;23.60
33153;BME280;19509;43.862;26.176;2022-07-29T11:56:31;100669.81;;;35.68;23.58
33153;BME280;19509;43.862;26.176;2022-07-29T11:59:07;100669.22;;;35.29;24.83
33153;BME280;19509;43.862;26.176;2022-07-29T12:01:35;100670.84;;;35.30;26.78
33153;BME280;19509;43.862;26.176;2022-07-29T12:04:07;100662.22;;;35.16;26.97
33153;BME280;19509;43.862;26.176;2022-07-29T12:06:36;100659.41;;;34.89;27.34
33153;BME280;19509;43.862;26.176;2022-07-29T12:09:08;100649.28;;;35.57;26.50
33153;BME280;19509;43.862;26.176;2022-07-29T12:11:34;100642.81;;;35.53;25.07
33153;BME280;19509;43.862;26.176;2022-07-29T12:14:00;100637.97;;;35.50;26.06
33153;BME280;19509;43.862;26.176;2022-07-29T12:16:35;100632.50;;;35.30;25.79
33153;BME280;19509;43.862;26.176;2022-07-29T12:19:02;100629.38;;;34.86;26.12
33153;BME280;19509;43.862;26.176;2022-07-29T12:24:09;100621.75;;;34.83;26.89
33153;BME280;19509;43.862;26.176;2022-07-29T12:26:35;100620.38;;;34.08;26.91
33153;BME280;19509;43.862;26.176;2022-07-29T12:29:01;100613.81;;;33.26;28.43
33153;BME280;19509;43.862;26.176;2022-07-29T12:31:27;100602.53;;;33.03;27.95
33153;BME280;19509;43.862;26.176;2022-07-29T12:33:53;100609.00;;;33.42;27.60
33153;BME280;19509;43.862;26.176;2022-07-29T12:36:19;100597.84;;;34.20;26.66
33153;BME280;19509;43.862;26.176;2022-07-29T12:38:45;100597.25;;;34.99;25.99
33153;BME280;19509;43.862;26.176;2022-07-29T12:41:11;100594.53;;;35.29;25.81
33153;BME280;19509;43.862;26.176;2022-07-29T12:43:36;100601.06;;;35.71;25.72
33153;BME280;19509;43.862;26.176;2022-07-29T12:46:14;100595.94;;;35.76;26.72
33153;BME280;19509;43.862;26.176;2022-07-29T12:48:42;100598.78;;;35.80;25.35
33153;BME280;19509;43.862;26.176;2022-07-29T12:51:08;100592.22;;;35.39;26.00
33153;BME280;19509;43.862;26.176;2022-07-29T12:53:36;100592.50;;;35.57;26.15
33153;BME280;19509;43.862;26.176;2022-07-29T12:56:03;100590.31;;;35.76;25.73
33153;BME280;19509;43.862;26.176;2022-07-29T12:58:31;100586.00;;;35.22;25.63
33153;BME280;19509;43.862;26.176;2022-07-29T13:01:02;100591.41;;;35.08;26.58
33153;BME280;19509;43.862;26.176;2022-07-29T13:03:28;100590.72;;;34.65;27.00
33153;BME280;19509;43.862;26.176;2022-07-29T13:05:54;100582.13;;;34.31;27.40
33153;BME280;19509;43.862;26.176;2022-07-29T13:08:19;100597.41;;;34.60;27.46
33153;BME280;19509;43.862;26.176;2022-07-29T13:10:45;100569.00;;;34.12;27.47
33153;BME280;19509;43.862;26.176;2022-07-29T13:13:15;100570.38;;;34.22;27.29
33153;BME280;19509;43.862;26.176;2022-07-29T13:15:45;100573.78;;;34.81;26.64
33153;BME280;19509;43.862;26.176;2022-07-29T13:18:29;100565.22;;;35.50;24.64
33153;BME280;19509;43.862;26.176;2022-07-29T13:20:55;100563.75;;;35.97;23.72
33153;BME280;19509;43.862;26.176;2022-07-29T13:23:20;100561.53;;;35.46;24.13
33153;BME280;19509;43.862;26.176;2022-07-29T13:25:46;100564.53;;;34.77;26.26
33153;BME280;19509;43.862;26.176;2022-07-29T13:28:11;100554.25;;;34.35;26.59
33153;BME280;19509;43.862;26.176;2022-07-29T13:30:39;100558.88;;;34.27;26.71
33153;BME280;19509;43.862;26.176;2022-07-29T13:33:05;100543.63;;;34.67;25.65
33153;BME280;19509;43.862;26.176;2022-07-29T13:35:30;100550.19;;;35.05;26.20
33153;BME280;19509;43.862;26.176;2022-07-29T13:37:56;100554.13;;;35.57;24.76